METAR Data
IDs: Format: Raw Decoded Include TAF

Data at: 1515 UTC 17 Nov 2019

Region: TOP
KATL 171452Z 11003KT 10SM BKN020 BKN030 12/02 A3008 RMK AO2 SLP184 T01220022 50005 $

KBOS 171454Z 36011KT 10SM OVC031 01/M06 A3045 RMK AO2 SLP310 T00061061 58000

KBWI 171454Z 05011KT 10SM OVC023 04/M05 A3026 RMK AO2 SLP249 T00441050 56011

KCLE 171451Z 16009KT 10SM SCT250 03/M11 A3015 RMK AO2 SLP218 T00281106 58014

KCLT 171452Z 01009KT 10SM FEW055 SCT200 09/01 A3011 RMK AO2 SLP197 T00890006 50002

KCVG 171452Z 09006KT 8SM SCT150 BKN250 03/M03 A3008 RMK AO2 SLP189 T00281028 58009

KDCA 171452Z 05011KT 10SM OVC023 04/M04 A3027 RMK AO2 SLP250 T00441039 58008

KDEN 171453Z 17008KT 10SM FEW070 FEW120 FEW220 M01/M04 A3015 RMK AO2 SLP216 T10061039 56005

KDFW 171453Z 18009KT 10SM FEW170 FEW250 09/03 A3005 RMK AO2 SLP174 T00940033 50006 $

KDTW 171453Z 06003KT 10SM FEW180 BKN250 M02/M05 A3012 RMK AO2 SLP208 I3000 T10171050 58015

KEWR 171451Z 03013KT 10SM FEW035 SCT050 BKN250 03/M06 A3035 RMK AO2 SLP275 T00331056 58007 $

KFLL 171453Z 30011KT 10SM OVC014 15/11 A2992 RMK AO2 SLP130 T01500111 50007 $

KIAD 171452Z 01007KT 10SM OVC020 02/M09 A3027 RMK AO2 SLP251 T00221089 58007

KIAH 171453Z 00000KT 8SM BKN250 11/06 A3012 RMK AO2 SLP200 T01060056 51014

KJFK 171451Z 03020G24KT 10SM FEW039 SCT050 BKN250 04/M02 A3035 RMK AO2 SLP276 T00391022 58007 $

KLAS 171456Z 22005KT 10SM CLR 12/M06 A3019 RMK AO2 SLP214 T01171056 50006

KLAX 171453Z 00000KT 9SM CLR 16/08 A2999 RMK AO2 SLP153 T01560083 53006 $

KLGA 171451Z 05022KT 10SM FEW032 BKN050 BKN130 BKN230 04/M03 A3035 RMK AO2 PK WND 05029/1432 SLP278 T00391033 58007

KMCO 171453Z 31008KT 10SM OVC009 12/09 A2996 RMK SLP144 T01220089 50006

KMDW 171453Z 14008G22KT 9SM FEW110 SCT130 BKN210 OVC250 00/M03 A3003 RMK AO2 SLP179 T00001033 58026

KMEM 171454Z 00000KT 10SM SCT250 06/02 A3009 RMK AO2 SLP190 T00610017 51001

KMIA 171453Z 31009KT 10SM OVC010 14/11 A2994 RMK AO2 SLP137 T01440106 51011 $

KMSP 171453Z 29007KT 7SM FEW013 OVC031 03/02 A2990 RMK AO2 SLP132 60000 T00330017 53002

KORD 171451Z 15007KT 10SM FEW140 SCT180 BKN250 00/M03 A3002 RMK AO2 SLP174 T00001028 58024

KPDX 171453Z 10007KT 10SM FEW055 OVC080 11/09 A3019 RMK AO2 SLP221 T01110089 53005

KPHL 171454Z 04014KT 10SM BKN025 OVC036 03/M07 A3030 RMK AO2 SLP259 T00281072 58011 $

KPHX 171451Z 10004KT 10SM CLR 14/01 A3002 RMK AO2 SLP157 T01440006 53011

KPIT 171451Z 11007KT 10SM FEW250 02/M06 A3014 RMK AO2 SLP226 T00171061 57007

KSAN 171451Z 32003KT 10SM FEW200 13/10 A2997 RMK AO2 SLP149 T01280100 53005

KSEA 171453Z 15008KT 10SM -RA BKN035 OVC055 11/09 A3010 RMK AO2 SLP198 P0000 60001 T01060089 55005

KSFO 171456Z 00000KT 10SM FEW006 SCT170 11/09 A3010 RMK AO2 SLP192 T01110094 50004 $

KSLC 171454Z 13007KT 10SM FEW200 02/M03 A3037 RMK AO2 SLP284 T00221028 53005

KSTL 171451Z 15005KT 6SM HZ SCT120 OVC200 04/00 A3006 RMK AO2 SLP185 T00440000 55004 $

KTPA 171453Z VRB04KT 10SM OVC009 11/08 A2999 RMK AO2 SLP156 T01110083 51006 $